createdAt,value
2019-06-15T00:01:19.116Z,101380.64
2019-06-15T00:03:47.615Z,101386.81
2019-06-15T00:06:16.134Z,101385.02
2019-06-15T00:08:44.620Z,101392.01
2019-06-15T00:11:13.198Z,101381.86
2019-06-15T00:13:41.693Z,101385.38
2019-06-15T00:16:10.246Z,101381.86
2019-06-15T00:18:38.726Z,101381.86
2019-06-15T00:21:07.256Z,101379.67
2019-06-15T00:23:35.819Z,101375.73
2019-06-15T00:26:04.482Z,101384.12
2019-06-15T00:28:33.149Z,101383.26
2019-06-15T00:31:01.635Z,101377.48
2019-06-15T00:33:30.126Z,101371.31
2019-06-15T00:35:58.664Z,101377.02
2019-06-15T00:38:27.160Z,101379.67
2019-06-15T00:40:57.360Z,101373.55
2019-06-15T00:43:26.046Z,101376.66
2019-06-15T00:45:54.528Z,101374.59
2019-06-15T00:48:23.012Z,101375.95
2019-06-15T00:50:51.528Z,101373.77
2019-06-15T00:53:20.037Z,101372.48
2019-06-15T00:55:48.500Z,101371.66
2019-06-15T00:58:17.093Z,101369.47
2019-06-15T01:00:45.638Z,101370.40
2019-06-15T01:03:14.496Z,101364.63
2019-06-15T01:05:43.010Z,101366.92
2019-06-15T01:08:11.532Z,101357.28
2019-06-15T01:10:40.016Z,101359.19
2019-06-15T01:13:08.544Z,101357.90
2019-06-15T01:15:37.068Z,101353.17
2019-06-15T01:18:05.683Z,101357.19
2019-06-15T01:20:34.218Z,101354.64
2019-06-15T01:23:02.801Z,101348.98
2019-06-15T01:25:31.281Z,101338.13
2019-06-15T01:27:59.828Z,101338.73
2019-06-15T01:30:28.319Z,101336.22
2019-06-15T01:32:56.799Z,101331.06
2019-06-15T01:35:25.314Z,101324.11
2019-06-15T01:37:53.789Z,101315.45
2019-06-15T01:40:22.632Z,101316.48
2019-06-15T01:42:51.173Z,101315.22
2019-06-15T01:45:25.436Z,101311.78
2019-06-15T01:47:54.465Z,101309.63
2019-06-15T01:50:23.004Z,101309.20
2019-06-15T01:52:51.556Z,101304.87
2019-06-15T01:55:21.339Z,101298.34
2019-06-15T01:57:50.052Z,101298.84
2019-06-15T02:00:29.556Z,101293.66
2019-06-15T02:02:58.170Z,101294.58
2019-06-15T02:05:27.820Z,101292.53
2019-06-15T02:07:56.457Z,101284.72
2019-06-15T02:10:29.398Z,101285.75
2019-06-15T02:12:57.956Z,101282.78
2019-06-15T02:15:26.516Z,101283.84
2019-06-15T02:17:55.064Z,101277.75
2019-06-15T02:20:23.629Z,101287.58
2019-06-15T02:22:52.106Z,101280.59
2019-06-15T02:25:35.822Z,101270.11
2019-06-15T02:27:59.189Z,101275.89
2019-06-15T02:30:32.869Z,101263.66
2019-06-15T02:33:01.596Z,101254.88
2019-06-15T02:35:30.248Z,101248.79
2019-06-15T02:37:58.915Z,101252.33
2019-06-15T02:40:27.502Z,101244.06
2019-06-15T02:42:56.054Z,101242.37
2019-06-15T02:45:24.796Z,101233.64
2019-06-15T02:47:53.394Z,101234.59
2019-06-15T02:50:22.117Z,101232.02
2019-06-15T02:52:50.676Z,101241.28
2019-06-15T02:55:19.270Z,101238.62
2019-06-15T02:57:47.891Z,101237.37
2019-06-15T03:00:19.565Z,101233.86
2019-06-15T03:02:48.162Z,101231.64
2019-06-15T03:05:16.724Z,101216.30
2019-06-15T03:07:46.361Z,101213.22
2019-06-15T03:10:15.050Z,101200.55
2019-06-15T03:12:43.540Z,101193.94
2019-06-15T03:15:13.875Z,101191.75
2019-06-15T03:17:42.360Z,101190.45
2019-06-15T03:20:10.986Z,101193.17
2019-06-15T03:22:39.514Z,101202.44
2019-06-15T03:25:12.324Z,101204.16
2019-06-15T03:27:40.818Z,101213.41
2019-06-15T03:30:09.835Z,101215.59
2019-06-15T03:32:38.332Z,101217.38
2019-06-15T03:35:09.141Z,101226.09
2019-06-15T03:37:37.651Z,101233.06
2019-06-15T03:40:06.972Z,101226.05
2019-06-15T03:42:35.457Z,101214.97
2019-06-15T03:45:08.086Z,101214.02
2019-06-15T03:47:36.640Z,101212.63
2019-06-15T03:50:06.171Z,101217.03
2019-06-15T03:52:34.690Z,101209.98
2019-06-15T03:55:03.415Z,101210.48
2019-06-15T03:57:31.892Z,101207.43
2019-06-15T04:00:00.665Z,101203.92
2019-06-15T04:02:29.411Z,101201.31
2019-06-15T04:04:57.894Z,101199.16
2019-06-15T04:07:26.424Z,101199.63
2019-06-15T04:09:55.942Z,101196.58
2019-06-15T04:12:24.435Z,101196.11
2019-06-15T04:14:52.967Z,101188.17
2019-06-15T04:17:21.467Z,101178.05
2019-06-15T04:19:49.954Z,101177.56
2019-06-15T04:22:18.503Z,101178.35
2019-06-15T04:24:47.005Z,101173.85
2019-06-15T04:27:15.489Z,101166.21
2019-06-15T04:29:44.022Z,101157.73
2019-06-15T04:32:14.143Z,101158.95
2019-06-15T04:34:42.615Z,101158.86
2019-06-15T04:37:11.148Z,101152.59
2019-06-15T04:39:39.625Z,101154.25
2019-06-15T04:42:08.188Z,101147.42
2019-06-15T04:44:36.764Z,101135.33
2019-06-15T04:47:05.324Z,101117.54
2019-06-15T04:49:33.806Z,101098.39
2019-06-15T04:52:02.520Z,101082.70
2019-06-15T04:54:31.015Z,101074.61
2019-06-15T04:56:59.500Z,101069.31
2019-06-15T04:59:28.064Z,101068.92
2019-06-15T05:01:56.543Z,101054.70
2019-06-15T05:04:25.036Z,101046.30
2019-06-15T05:06:53.601Z,101046.18
2019-06-15T05:09:22.131Z,101037.77
2019-06-15T05:11:51.988Z,101035.55
2019-06-15T05:14:20.520Z,101034.14
2019-06-15T05:16:49.042Z,101045.91
2019-06-15T05:19:17.493Z,101050.97
2019-06-15T05:21:46.014Z,101051.51
2019-06-15T05:24:14.506Z,101053.84
2019-06-15T05:26:42.992Z,101052.23
2019-06-15T05:29:11.511Z,101051.95
2019-06-15T05:31:39.991Z,101051.32
2019-06-15T05:34:08.578Z,101038.41
2019-06-15T05:36:37.128Z,101044.45
2019-06-15T05:39:06.819Z,101038.98
2019-06-15T05:41:36.071Z,101033.97
2019-06-15T05:44:05.330Z,101029.75
2019-06-15T05:46:33.822Z,101024.77
2019-06-15T05:49:02.303Z,101034.69
2019-06-15T05:51:30.865Z,101047.23
2019-06-15T05:53:59.345Z,101041.58
2019-06-15T05:56:27.839Z,101051.77
2019-06-15T05:58:56.366Z,101060.75
2019-06-15T06:01:24.875Z,101063.43
2019-06-15T06:03:53.346Z,101056.38
2019-06-15T06:06:21.953Z,101043.21
2019-06-15T06:08:53.303Z,101045.16
2019-06-15T06:11:21.784Z,101043.70
2019-06-15T06:13:50.962Z,101041.33
2019-06-15T06:16:19.442Z,101045.23
2019-06-15T06:18:47.922Z,101051.11
2019-06-15T06:21:16.446Z,101047.37
2019-06-15T06:23:44.926Z,101052.63
2019-06-15T06:26:13.417Z,101046.47
2019-06-15T06:28:54.084Z,101031.95
2019-06-15T06:31:12.173Z,101027.25
2019-06-15T06:33:40.656Z,101021.28
2019-06-15T06:36:09.211Z,101015.16
2019-06-15T06:38:37.692Z,101005.72
2019-06-15T06:41:06.181Z,101014.54
2019-06-15T06:43:34.704Z,101011.73
2019-06-15T06:46:03.294Z,101003.20
2019-06-15T06:48:31.781Z,101012.77
2019-06-15T06:51:00.336Z,101011.62
2019-06-15T06:53:28.894Z,101001.58
2019-06-15T06:55:57.367Z,101001.99
2019-06-15T06:58:25.895Z,101001.52
2019-06-15T07:00:54.385Z,100991.53
2019-06-15T07:03:22.883Z,100992.33
2019-06-15T07:05:51.400Z,100981.16
2019-06-15T07:08:19.906Z,100988.08
2019-06-15T07:10:48.439Z,100973.48
2019-06-15T07:13:16.945Z,100978.63
2019-06-15T07:15:45.615Z,100982.00
2019-06-15T07:18:14.100Z,100981.30
2019-06-15T07:20:42.635Z,100982.57
2019-06-15T07:23:11.143Z,100992.58
2019-06-15T07:25:39.628Z,100988.98
2019-06-15T07:28:08.708Z,100987.23
2019-06-15T07:30:37.338Z,100976.46
2019-06-15T07:33:05.836Z,100969.45
2019-06-15T07:35:34.613Z,100959.61
2019-06-15T07:38:03.100Z,100971.58
2019-06-15T07:40:31.594Z,100956.55
2019-06-15T07:43:00.110Z,100949.15
2019-06-15T07:45:28.601Z,100952.77
2019-06-15T07:48:02.543Z,100951.61
2019-06-15T07:50:31.062Z,100960.55
2019-06-15T07:52:59.547Z,100948.20
2019-06-15T07:55:28.034Z,100951.86
2019-06-15T07:57:56.574Z,100943.75
2019-06-15T08:00:25.209Z,100944.45
2019-06-15T08:02:55.327Z,100933.33
2019-06-15T08:05:23.882Z,100936.84
2019-06-15T08:07:54.771Z,100945.14
2019-06-15T08:10:23.351Z,100942.26
2019-06-15T08:12:54.668Z,100923.91
2019-06-15T08:15:28.313Z,100923.00
2019-06-15T08:17:57.457Z,100921.19
2019-06-15T08:20:31.802Z,100922.68
2019-06-15T08:23:00.283Z,100919.09
2019-06-15T08:25:28.777Z,100917.63
2019-06-15T08:27:57.293Z,100904.78
2019-06-15T08:30:34.609Z,100893.11
2019-06-15T08:33:03.147Z,100881.44
2019-06-15T08:35:31.624Z,100876.59
2019-06-15T08:38:00.122Z,100865.30
2019-06-15T08:40:28.657Z,100859.98
2019-06-15T08:42:57.157Z,100857.14
2019-06-15T08:45:25.646Z,100858.75
2019-06-15T08:47:54.165Z,100865.72
2019-06-15T08:50:22.652Z,100865.06
2019-06-15T08:52:51.123Z,100862.88
2019-06-15T08:55:19.637Z,100861.20
2019-06-15T08:57:48.212Z,100856.77
2019-06-15T09:00:17.151Z,100844.20
2019-06-15T09:02:45.684Z,100830.16
2019-06-15T09:05:14.339Z,100829.29
2019-06-15T09:07:42.886Z,100820.52
2019-06-15T09:10:11.844Z,100814.28
2019-06-15T09:12:40.332Z,100805.41
2019-06-15T09:15:09.560Z,100798.69
2019-06-15T09:17:38.089Z,100802.66
2019-06-15T09:20:09.492Z,100796.69
2019-06-15T09:22:37.975Z,100788.53
2019-06-15T09:25:06.898Z,100771.02
2019-06-15T09:27:35.403Z,100766.52
2019-06-15T09:30:05.508Z,100754.59
2019-06-15T09:32:34.040Z,100766.14
2019-06-15T09:35:02.527Z,100790.88
2019-06-15T09:37:31.086Z,100776.37
2019-06-15T09:39:59.617Z,100771.05
2019-06-15T09:42:28.153Z,100778.51
2019-06-15T09:44:56.655Z,100781.50
2019-06-15T09:47:25.184Z,100787.70
2019-06-15T09:49:53.677Z,100789.20
2019-06-15T09:52:22.179Z,100789.77
2019-06-15T09:54:50.734Z,100790.74
2019-06-15T09:57:19.293Z,100788.55
2019-06-15T09:59:47.770Z,100789.97
2019-06-15T10:02:16.295Z,100777.38
2019-06-15T10:04:44.786Z,100779.41
2019-06-15T10:07:13.293Z,100778.80
2019-06-15T10:09:41.840Z,100783.01
2019-06-15T10:12:10.341Z,100779.69
2019-06-15T10:14:38.840Z,100774.42
2019-06-15T10:17:07.369Z,100780.05
2019-06-15T10:19:35.860Z,100778.06
2019-06-15T10:22:05.446Z,100771.39
2019-06-15T10:24:33.977Z,100761.55
2019-06-15T10:27:02.462Z,100750.75
2019-06-15T10:29:41.521Z,100749.73
2019-06-15T10:32:01.311Z,100739.88
2019-06-15T10:34:29.825Z,100734.50
2019-06-15T10:36:58.351Z,100736.80
2019-06-15T10:39:26.871Z,100736.38
2019-06-15T10:41:55.343Z,100731.23
2019-06-15T10:44:23.824Z,100727.98
2019-06-15T10:46:52.343Z,100729.03
2019-06-15T10:49:20.832Z,100722.13
2019-06-15T10:51:49.318Z,100728.70
2019-06-15T10:54:17.841Z,100732.17
2019-06-15T10:56:46.326Z,100721.56
2019-06-15T10:59:18.123Z,100727.84
2019-06-15T11:01:46.666Z,100725.13
2019-06-15T11:04:15.151Z,100731.59
2019-06-15T11:06:43.639Z,100731.66
2019-06-15T11:09:12.174Z,100733.09
2019-06-15T11:11:40.747Z,100734.87
2019-06-15T11:14:10.008Z,100736.67
2019-06-15T11:16:38.541Z,100739.41
2019-06-15T11:19:07.105Z,100738.13
2019-06-15T11:21:35.578Z,100738.37
2019-06-15T11:24:04.627Z,100740.84
2019-06-15T11:26:33.180Z,100748.79
2019-06-15T11:29:01.909Z,100749.88
2019-06-15T11:31:30.507Z,100745.37
2019-06-15T11:33:59.021Z,100746.57
2019-06-15T11:36:27.581Z,100750.30
2019-06-15T11:38:56.164Z,100746.20
2019-06-15T11:41:24.719Z,100742.23
2019-06-15T11:43:53.205Z,100741.69
2019-06-15T11:46:21.748Z,100738.82
2019-06-15T11:48:50.226Z,100737.55
2019-06-15T11:51:18.867Z,100729.78
2019-06-15T11:53:47.374Z,100727.96
2019-06-15T11:56:15.952Z,100729.74
2019-06-15T11:58:44.424Z,100719.99
2019-06-15T12:01:12.935Z,100739.56
2019-06-15T12:03:41.420Z,100734.70
2019-06-15T12:06:09.901Z,100739.02
2019-06-15T12:08:38.424Z,100733.05
2019-06-15T12:11:06.914Z,100737.27
2019-06-15T12:13:35.410Z,100736.28
2019-06-15T12:16:04.042Z,100737.76
2019-06-15T12:18:32.544Z,100739.48
2019-06-15T12:21:01.032Z,100734.96
2019-06-15T12:23:29.630Z,100739.34
2019-06-15T12:25:58.537Z,100738.75
2019-06-15T12:28:27.086Z,100735.07
2019-06-15T12:30:55.603Z,100737.62
2019-06-15T12:33:24.153Z,100739.17
2019-06-15T12:35:52.651Z,100739.63
2019-06-15T12:38:21.173Z,100743.65
2019-06-15T12:40:49.659Z,100745.34
2019-06-15T12:43:18.135Z,100736.93
2019-06-15T12:45:46.660Z,100740.31
2019-06-15T12:48:15.143Z,100738.37
2019-06-15T12:50:43.629Z,100734.34
2019-06-15T12:53:12.153Z,100730.07
2019-06-15T12:55:40.640Z,100730.82
2019-06-15T12:58:09.110Z,100725.25
2019-06-15T13:00:39.936Z,100728.42
2019-06-15T13:03:08.480Z,100719.20
2019-06-15T13:05:36.958Z,100724.44
2019-06-15T13:08:05.675Z,100723.61
2019-06-15T13:10:34.236Z,100726.89
2019-06-15T13:13:02.804Z,100724.97
2019-06-15T13:15:31.510Z,100727.80
2019-06-15T13:18:01.734Z,100730.34
2019-06-15T13:20:30.541Z,100722.98
2019-06-15T13:22:59.801Z,100729.45
2019-06-15T13:25:28.429Z,100716.98
2019-06-15T13:27:58.365Z,100717.48
2019-06-15T13:30:27.053Z,100718.91
2019-06-15T13:32:55.623Z,100715.73
2019-06-15T13:35:24.196Z,100710.34
2019-06-15T13:37:52.887Z,100712.34
2019-06-15T13:40:21.545Z,100705.61
2019-06-15T13:42:50.113Z,100705.70
2019-06-15T13:45:19.145Z,100692.84
2019-06-15T13:47:47.833Z,100686.84
2019-06-15T13:50:16.407Z,100686.11
2019-06-15T13:52:45.006Z,100683.53
2019-06-15T13:55:13.821Z,100679.12
2019-06-15T13:57:42.563Z,100665.05
2019-06-15T14:00:11.575Z,100657.20
2019-06-15T14:02:40.163Z,100646.70
2019-06-15T14:05:09.376Z,100648.47
2019-06-15T14:07:37.978Z,100653.27
2019-06-15T14:10:06.967Z,100657.11
2019-06-15T14:12:35.544Z,100664.01
2019-06-15T14:15:07.448Z,100661.80
2019-06-15T14:17:39.523Z,100659.47
2019-06-15T14:20:06.577Z,100643.63
2019-06-15T14:22:35.097Z,100632.27
2019-06-15T14:25:05.693Z,100621.12
2019-06-15T14:27:34.177Z,100625.12
2019-06-15T14:30:06.397Z,100627.66
2019-06-15T14:32:34.930Z,100633.28
2019-06-15T14:35:04.643Z,100629.10
2019-06-15T14:37:33.179Z,100630.75
2019-06-15T14:40:01.715Z,100636.45
2019-06-15T14:42:30.179Z,100656.31
2019-06-15T14:44:58.701Z,100682.58
2019-06-15T14:47:27.181Z,100688.26
2019-06-15T14:49:55.671Z,100667.97
2019-06-15T14:52:24.224Z,100657.91
2019-06-15T14:54:52.716Z,100660.67
2019-06-15T14:57:21.215Z,100675.58
2019-06-15T15:00:00.467Z,100677.48
2019-06-15T15:02:19.956Z,100693.75
2019-06-15T15:04:48.444Z,100705.88
2019-06-15T15:07:17.063Z,100734.64
2019-06-15T15:09:46.900Z,100747.42
2019-06-15T15:12:16.185Z,100755.09
2019-06-15T15:14:46.932Z,100757.09
2019-06-15T15:17:17.230Z,100770.67
2019-06-15T15:19:46.621Z,100795.47
2019-06-15T15:22:16.016Z,100823.83
2019-06-15T15:24:44.674Z,100823.47
2019-06-15T15:27:13.150Z,100826.30
2019-06-15T15:29:42.834Z,100823.90
2019-06-15T15:32:25.171Z,100832.17
2019-06-15T15:34:42.756Z,100831.31
2019-06-15T15:37:11.272Z,100832.52
2019-06-15T15:39:39.822Z,100818.22
2019-06-15T15:42:08.271Z,100818.89
2019-06-15T15:44:36.789Z,100823.50
2019-06-15T15:47:07.120Z,100827.97
2019-06-15T15:49:37.433Z,100814.93
2019-06-15T15:52:05.983Z,100785.43
2019-06-15T15:54:46.806Z,100784.33
2019-06-15T15:57:17.220Z,100775.23
2019-06-15T15:59:46.795Z,100768.37
2019-06-15T16:02:16.114Z,100769.42
2019-06-15T16:04:46.960Z,100761.56
2019-06-15T16:07:16.851Z,100779.34
2019-06-15T16:09:45.415Z,100795.55
2019-06-15T16:12:13.932Z,100808.98
2019-06-15T16:14:42.428Z,100832.89
2019-06-15T16:17:10.899Z,100845.78
2019-06-15T16:19:39.442Z,100860.63
2019-06-15T16:22:07.939Z,100855.73
2019-06-15T16:24:37.488Z,100847.02
2019-06-15T16:27:07.089Z,100856.19
2019-06-15T16:29:37.289Z,100840.37
2019-06-15T16:32:07.108Z,100865.61
2019-06-15T16:34:36.981Z,100847.32
2019-06-15T16:37:06.561Z,100859.36
2019-06-15T16:39:36.136Z,100861.38
2019-06-15T16:42:06.558Z,100863.19
2019-06-15T16:44:36.615Z,100844.91
2019-06-15T16:47:06.083Z,100847.31
2019-06-15T16:49:36.331Z,100832.70
2019-06-15T16:52:06.234Z,100822.45
2019-06-15T16:54:36.145Z,100818.52
2019-06-15T16:57:04.764Z,100812.59
2019-06-15T16:59:33.248Z,100816.64
2019-06-15T17:02:01.812Z,100821.19
2019-06-15T17:04:30.406Z,100834.03
2019-06-15T17:06:58.895Z,100827.22
2019-06-15T17:09:27.694Z,100821.48
2019-06-15T17:11:57.073Z,100819.93
2019-06-15T17:14:27.111Z,100812.38
2019-06-15T17:16:56.661Z,100813.89
2019-06-15T17:19:26.928Z,100813.20
2019-06-15T17:21:58.121Z,100807.28
2019-06-15T17:24:26.528Z,100816.16
2019-06-15T17:26:57.038Z,100818.92
2019-06-15T17:29:25.497Z,100824.59
2019-06-15T17:31:53.971Z,100813.22
2019-06-15T17:34:22.503Z,100808.36
2019-06-15T17:36:51.102Z,100801.78
2019-06-15T17:39:19.623Z,100810.37
2019-06-15T17:41:48.143Z,100820.80
2019-06-15T17:44:16.933Z,100826.34
2019-06-15T17:46:46.404Z,100827.58
2019-06-15T17:49:17.680Z,100831.30
2019-06-15T17:51:46.128Z,100848.17
2019-06-15T17:54:16.964Z,100851.27
2019-06-15T17:56:46.254Z,100859.58
2019-06-15T17:59:16.235Z,100859.05
2019-06-15T18:01:46.928Z,100861.48
2019-06-15T18:04:16.697Z,100875.95
2019-06-15T18:06:46.871Z,100891.53
2019-06-15T18:09:17.114Z,100901.55
2019-06-15T18:11:46.485Z,100914.05
2019-06-15T18:14:17.480Z,100923.38
2019-06-15T18:16:46.977Z,100938.06
2019-06-15T18:19:17.080Z,100931.88
2019-06-15T18:21:46.756Z,100943.37
2019-06-15T18:24:16.237Z,100937.09
2019-06-15T18:26:47.153Z,100939.27
2019-06-15T18:29:16.771Z,100946.18
2019-06-15T18:31:45.517Z,100934.03
2019-06-15T18:34:16.741Z,100930.20
2019-06-15T18:36:44.232Z,100912.75
2019-06-15T18:39:12.910Z,100919.48
2019-06-15T18:41:41.502Z,100920.17
2019-06-15T18:44:09.985Z,100916.73
2019-06-15T18:46:38.473Z,100928.37
2019-06-15T18:49:06.996Z,100942.17
2019-06-15T18:51:35.498Z,100958.16
2019-06-15T18:54:06.591Z,100968.34
2019-06-15T18:56:36.354Z,100985.19
2019-06-15T18:59:07.105Z,101001.47
2019-06-15T19:01:37.380Z,101021.27
2019-06-15T19:04:06.774Z,101039.28
2019-06-15T19:06:37.034Z,101045.73
2019-06-15T19:09:10.214Z,101062.00
2019-06-15T19:11:38.700Z,101071.27
2019-06-15T19:14:07.178Z,101076.00
2019-06-15T19:16:37.203Z,101072.69
2019-06-15T19:19:09.044Z,101080.34
2019-06-15T19:21:36.159Z,101083.23
2019-06-15T19:24:07.077Z,101083.85
2019-06-15T19:26:37.428Z,101085.84
2019-06-15T19:29:06.502Z,101086.55
2019-06-15T19:31:36.714Z,101079.72
2019-06-15T19:34:06.822Z,101086.11
2019-06-15T19:36:36.623Z,101088.06
2019-06-15T19:39:07.868Z,101091.33
2019-06-15T19:41:38.131Z,101091.52
2019-06-15T19:44:06.746Z,101095.20
2019-06-15T19:46:36.533Z,101095.81
2019-06-15T19:49:06.348Z,101107.45
2019-06-15T19:51:36.294Z,101114.75
2019-06-15T19:54:07.036Z,101126.41
2019-06-15T19:56:37.202Z,101124.80
2019-06-15T19:59:06.901Z,101128.91
2019-06-15T20:01:36.242Z,101130.45
2019-06-15T20:04:06.594Z,101135.05
2019-06-15T20:06:37.056Z,101132.70
2019-06-15T20:09:08.988Z,101134.66
2019-06-15T20:11:37.546Z,101136.65
2019-06-15T20:14:06.765Z,101147.83
2019-06-15T20:16:36.116Z,101149.37
2019-06-15T20:19:06.834Z,101154.82
2019-06-15T20:21:37.308Z,101160.70
2019-06-15T20:24:06.292Z,101159.50
2019-06-15T20:26:36.622Z,101160.98
2019-06-15T20:29:07.165Z,101161.53
2019-06-15T20:31:36.996Z,101175.34
2019-06-15T20:34:05.792Z,101187.44
2019-06-15T20:36:36.510Z,101200.38
2019-06-15T20:39:07.681Z,101210.63
2019-06-15T20:41:36.574Z,101206.69
2019-06-15T20:44:05.522Z,101208.08
2019-06-15T20:46:36.936Z,101203.22
2019-06-15T20:49:06.559Z,101188.74
2019-06-15T20:51:37.174Z,101186.93
2019-06-15T20:54:06.962Z,101187.33
2019-06-15T20:56:37.632Z,101187.73
2019-06-15T20:59:06.465Z,101196.09
2019-06-15T21:01:36.847Z,101201.38
2019-06-15T21:04:07.365Z,101208.91
2019-06-15T21:06:37.128Z,101211.14
2019-06-15T21:09:07.643Z,101212.61
2019-06-15T21:11:36.346Z,101210.02
2019-06-15T21:14:07.039Z,101210.11
2019-06-15T21:16:37.061Z,101204.50
2019-06-15T21:19:06.527Z,101204.19
2019-06-15T21:21:37.442Z,101203.44
2019-06-15T21:24:06.386Z,101200.95
2019-06-15T21:26:35.270Z,101204.62
2019-06-15T21:29:06.378Z,101211.81
2019-06-15T21:31:36.591Z,101211.08
2019-06-15T21:34:06.803Z,101209.06
2019-06-15T21:36:37.403Z,101213.98
2019-06-15T21:39:07.030Z,101209.73
2019-06-15T21:41:36.722Z,101201.93
2019-06-15T21:44:06.387Z,101192.55
2019-06-15T21:46:36.128Z,101201.36
2019-06-15T21:49:07.103Z,101206.30
2019-06-15T21:51:36.659Z,101210.81
2019-06-15T21:54:06.889Z,101225.39
2019-06-15T21:56:36.716Z,101242.62
2019-06-15T21:59:07.373Z,101243.09
2019-06-15T22:01:37.351Z,101242.69
2019-06-15T22:04:06.891Z,101244.03
2019-06-15T22:06:37.247Z,101240.07
2019-06-15T22:09:08.729Z,101241.84
2019-06-15T22:11:37.234Z,101244.89
2019-06-15T22:14:07.049Z,101244.41
2019-06-15T22:16:35.607Z,101247.45
2019-06-15T22:19:06.122Z,101250.48
2019-06-15T22:21:36.662Z,101246.91
2019-06-15T22:24:06.845Z,101245.50
2019-06-15T22:26:34.926Z,101246.80
2019-06-15T22:29:03.448Z,101244.56
2019-06-15T22:31:31.977Z,101248.52
2019-06-15T22:34:00.532Z,101256.89
2019-06-15T22:36:29.097Z,101260.91
2019-06-15T22:38:57.607Z,101260.91
2019-06-15T22:41:26.117Z,101269.63
2019-06-15T22:43:56.850Z,101274.44
2019-06-15T22:46:26.245Z,101272.66
2019-06-15T22:48:56.260Z,101273.98
2019-06-15T22:51:27.327Z,101279.69
2019-06-15T22:53:56.624Z,101283.59
2019-06-15T22:56:26.445Z,101284.49
2019-06-15T22:58:56.976Z,101295.45
2019-06-15T23:01:26.210Z,101298.11
2019-06-15T23:03:56.962Z,101295.98
2019-06-15T23:06:34.792Z,101299.98
2019-06-15T23:08:56.485Z,101294.79
2019-06-15T23:11:26.691Z,101298.36
2019-06-15T23:13:57.407Z,101297.95
2019-06-15T23:16:27.212Z,101301.89
2019-06-15T23:18:56.998Z,101293.09
2019-06-15T23:21:26.833Z,101293.09
2019-06-15T23:23:56.286Z,101301.00
2019-06-15T23:26:24.983Z,101304.53
2019-06-15T23:28:56.213Z,101309.81
2019-06-15T23:31:23.775Z,101303.69
2019-06-15T23:33:52.257Z,101316.42
2019-06-15T23:36:26.958Z,101325.67
2019-06-15T23:38:57.035Z,101329.62
2019-06-15T23:41:27.332Z,101321.69
2019-06-15T23:43:56.030Z,101321.69
2019-06-15T23:46:26.908Z,101328.30
2019-06-15T23:48:56.549Z,101320.91
2019-06-15T23:51:26.676Z,101327.13
2019-06-15T23:53:57.103Z,101329.38
2019-06-15T23:56:26.040Z,101327.73
2019-06-15T23:58:56.056Z,101322.56
